sensor_id;sensor_type;location;lat;lon;timestamp;P1;durP1;ratioP1;P2;durP2;ratioP2
29246;SDS011;16272;48.188;9.964;2022-09-09T00:01:02;7.40;;;1.43;;
29246;SDS011;16272;48.188;9.964;2022-09-09T00:03:37;6.38;;;1.77;;
29246;SDS011;16272;48.188;9.964;2022-09-09T00:11:58;7.13;;;1.50;;
29246;SDS011;16272;48.188;9.964;2022-09-09T00:14:34;6.03;;;1.60;;
29246;SDS011;16272;48.188;9.964;2022-09-09T00:17:56;8.70;;;1.50;;
29246;SDS011;16272;48.188;9.964;2022-09-09T00:20:32;5.97;;;1.60;;
29246;SDS011;16272;48.188;9.964;2022-09-09T00:23:17;6.60;;;1.83;;
29246;SDS011;16272;48.188;9.964;2022-09-09T00:28:35;8.30;;;1.58;;
29246;SDS011;16272;48.188;9.964;2022-09-09T00:31:15;8.10;;;1.80;;
29246;SDS011;16272;48.188;9.964;2022-09-09T00:33:45;6.40;;;1.50;;
29246;SDS011;16272;48.188;9.964;2022-09-09T00:36:14;7.43;;;1.77;;
29246;SDS011;16272;48.188;9.964;2022-09-09T00:38:47;6.47;;;1.40;;
29246;SDS011;16272;48.188;9.964;2022-09-09T00:44:00;5.22;;;1.48;;
29246;SDS011;16272;48.188;9.964;2022-09-09T00:57:36;8.50;;;2.25;;
29246;SDS011;16272;48.188;9.964;2022-09-09T01:03:02;8.10;;;1.50;;
29246;SDS011;16272;48.188;9.964;2022-09-09T01:11:22;5.20;;;1.30;;
29246;SDS011;16272;48.188;9.964;2022-09-09T01:13:54;7.40;;;1.63;;
29246;SDS011;16272;48.188;9.964;2022-09-09T01:16:25;7.25;;;1.70;;
29246;SDS011;16272;48.188;9.964;2022-09-09T01:18:54;8.40;;;1.70;;
29246;SDS011;16272;48.188;9.964;2022-09-09T01:24:13;7.43;;;1.80;;
29246;SDS011;16272;48.188;9.964;2022-09-09T01:26:47;7.03;;;1.70;;
29246;SDS011;16272;48.188;9.964;2022-09-09T01:29:17;7.68;;;1.88;;
29246;SDS011;16272;48.188;9.964;2022-09-09T01:35:09;6.07;;;2.00;;
29246;SDS011;16272;48.188;9.964;2022-09-09T01:37:44;6.35;;;1.80;;
29246;SDS011;16272;48.188;9.964;2022-09-09T01:40:09;6.43;;;1.63;;
29246;SDS011;16272;48.188;9.964;2022-09-09T01:42:34;7.00;;;1.90;;
29246;SDS011;16272;48.188;9.964;2022-09-09T01:45:00;6.23;;;1.67;;
29246;SDS011;16272;48.188;9.964;2022-09-09T01:47:25;6.03;;;1.85;;
29246;SDS011;16272;48.188;9.964;2022-09-09T01:49:50;7.17;;;2.10;;
29246;SDS011;16272;48.188;9.964;2022-09-09T01:52:16;6.10;;;1.97;;
29246;SDS011;16272;48.188;9.964;2022-09-09T01:54:41;6.10;;;2.10;;
29246;SDS011;16272;48.188;9.964;2022-09-09T01:59:53;6.88;;;1.95;;
29246;SDS011;16272;48.188;9.964;2022-09-09T02:07:46;6.20;;;1.90;;
29246;SDS011;16272;48.188;9.964;2022-09-09T02:12:46;6.55;;;2.15;;
29246;SDS011;16272;48.188;9.964;2022-09-09T02:15:17;7.00;;;1.95;;
29246;SDS011;16272;48.188;9.964;2022-09-09T02:17:48;7.53;;;1.80;;
29246;SDS011;16272;48.188;9.964;2022-09-09T02:20:17;7.33;;;2.00;;
29246;SDS011;16272;48.188;9.964;2022-09-09T02:22:44;16.35;;;2.22;;
29246;SDS011;16272;48.188;9.964;2022-09-09T02:25:12;6.53;;;2.00;;
29246;SDS011;16272;48.188;9.964;2022-09-09T02:27:43;6.57;;;1.90;;
29246;SDS011;16272;48.188;9.964;2022-09-09T02:30:11;8.13;;;2.20;;
29246;SDS011;16272;48.188;9.964;2022-09-09T02:32:37;7.43;;;1.97;;
29246;SDS011;16272;48.188;9.964;2022-09-09T02:35:06;7.38;;;1.88;;
29246;SDS011;16272;48.188;9.964;2022-09-09T02:37:37;7.38;;;1.90;;
29246;SDS011;16272;48.188;9.964;2022-09-09T02:40:04;7.88;;;1.75;;
29246;SDS011;16272;48.188;9.964;2022-09-09T02:42:38;7.55;;;2.00;;
29246;SDS011;16272;48.188;9.964;2022-09-09T02:45:05;8.07;;;1.90;;
29246;SDS011;16272;48.188;9.964;2022-09-09T02:47:34;7.13;;;1.90;;
29246;SDS011;16272;48.188;9.964;2022-09-09T02:50:13;7.30;;;2.05;;
29246;SDS011;16272;48.188;9.964;2022-09-09T02:58:08;6.53;;;2.17;;
29246;SDS011;16272;48.188;9.964;2022-09-09T03:00:38;10.80;;;2.50;;
29246;SDS011;16272;48.188;9.964;2022-09-09T03:03:05;7.63;;;2.30;;
29246;SDS011;16272;48.188;9.964;2022-09-09T03:05:31;6.30;;;2.40;;
29246;SDS011;16272;48.188;9.964;2022-09-09T03:07:57;7.53;;;2.53;;
29246;SDS011;16272;48.188;9.964;2022-09-09T03:10:23;6.93;;;2.08;;
29246;SDS011;16272;48.188;9.964;2022-09-09T03:12:48;6.80;;;2.17;;
29246;SDS011;16272;48.188;9.964;2022-09-09T03:15:14;7.07;;;2.20;;
29246;SDS011;16272;48.188;9.964;2022-09-09T03:17:40;6.85;;;2.20;;
29246;SDS011;16272;48.188;9.964;2022-09-09T03:20:06;8.03;;;2.23;;
29246;SDS011;16272;48.188;9.964;2022-09-09T03:22:33;9.70;;;2.30;;
29246;SDS011;16272;48.188;9.964;2022-09-09T03:24:59;6.75;;;2.10;;
29246;SDS011;16272;48.188;9.964;2022-09-09T03:27:24;8.33;;;2.40;;
29246;SDS011;16272;48.188;9.964;2022-09-09T03:29:49;7.70;;;2.60;;
29246;SDS011;16272;48.188;9.964;2022-09-09T03:32:17;7.53;;;2.33;;
29246;SDS011;16272;48.188;9.964;2022-09-09T03:34:44;8.07;;;2.25;;
29246;SDS011;16272;48.188;9.964;2022-09-09T03:37:09;9.03;;;2.73;;
29246;SDS011;16272;48.188;9.964;2022-09-09T03:39:35;8.45;;;2.60;;
29246;SDS011;16272;48.188;9.964;2022-09-09T03:42:00;7.53;;;2.40;;
29246;SDS011;16272;48.188;9.964;2022-09-09T03:44:29;8.35;;;2.65;;
29246;SDS011;16272;48.188;9.964;2022-09-09T03:46:55;7.45;;;2.70;;
29246;SDS011;16272;48.188;9.964;2022-09-09T03:49:20;7.10;;;2.77;;
29246;SDS011;16272;48.188;9.964;2022-09-09T03:51:47;8.20;;;2.78;;
29246;SDS011;16272;48.188;9.964;2022-09-09T03:54:12;7.60;;;2.57;;
29246;SDS011;16272;48.188;9.964;2022-09-09T03:56:37;8.57;;;2.43;;
29246;SDS011;16272;48.188;9.964;2022-09-09T03:59:03;10.77;;;3.22;;
29246;SDS011;16272;48.188;9.964;2022-09-09T04:01:29;8.53;;;2.97;;
29246;SDS011;16272;48.188;9.964;2022-09-09T04:03:54;9.10;;;2.57;;
29246;SDS011;16272;48.188;9.964;2022-09-09T04:06:23;8.93;;;2.72;;
29246;SDS011;16272;48.188;9.964;2022-09-09T04:08:49;7.38;;;2.50;;
29246;SDS011;16272;48.188;9.964;2022-09-09T04:11:15;8.17;;;2.90;;
29246;SDS011;16272;48.188;9.964;2022-09-09T04:13:40;9.52;;;3.00;;
29246;SDS011;16272;48.188;9.964;2022-09-09T04:16:07;6.57;;;2.50;;
29246;SDS011;16272;48.188;9.964;2022-09-09T04:18:34;8.20;;;2.55;;
29246;SDS011;16272;48.188;9.964;2022-09-09T04:20:59;7.63;;;2.70;;
29246;SDS011;16272;48.188;9.964;2022-09-09T04:23:25;8.02;;;2.33;;
29246;SDS011;16272;48.188;9.964;2022-09-09T04:25:54;7.73;;;2.70;;
29246;SDS011;16272;48.188;9.964;2022-09-09T04:28:21;8.40;;;2.88;;
29246;SDS011;16272;48.188;9.964;2022-09-09T04:30:48;6.90;;;2.70;;
29246;SDS011;16272;48.188;9.964;2022-09-09T04:33:14;8.23;;;2.43;;
29246;SDS011;16272;48.188;9.964;2022-09-09T04:35:46;7.53;;;2.80;;
29246;SDS011;16272;48.188;9.964;2022-09-09T04:38:13;7.85;;;2.80;;
29246;SDS011;16272;48.188;9.964;2022-09-09T04:40:41;7.20;;;2.90;;
29246;SDS011;16272;48.188;9.964;2022-09-09T04:43:08;6.90;;;2.57;;
29246;SDS011;16272;48.188;9.964;2022-09-09T04:45:34;9.27;;;2.75;;
29246;SDS011;16272;48.188;9.964;2022-09-09T04:47:59;7.63;;;2.60;;
29246;SDS011;16272;48.188;9.964;2022-09-09T04:50:25;8.57;;;2.70;;
29246;SDS011;16272;48.188;9.964;2022-09-09T04:52:51;11.40;;;3.40;;
29246;SDS011;16272;48.188;9.964;2022-09-09T04:55:16;9.77;;;3.03;;
29246;SDS011;16272;48.188;9.964;2022-09-09T04:57:41;7.63;;;2.63;;
29246;SDS011;16272;48.188;9.964;2022-09-09T05:00:07;8.90;;;2.90;;
29246;SDS011;16272;48.188;9.964;2022-09-09T05:02:33;7.93;;;2.92;;
29246;SDS011;16272;48.188;9.964;2022-09-09T05:05:02;10.30;;;3.17;;
29246;SDS011;16272;48.188;9.964;2022-09-09T05:07:28;7.40;;;3.08;;
29246;SDS011;16272;48.188;9.964;2022-09-09T05:09:54;14.00;;;3.40;;
29246;SDS011;16272;48.188;9.964;2022-09-09T05:12:19;7.97;;;2.87;;
29246;SDS011;16272;48.188;9.964;2022-09-09T05:14:44;8.37;;;2.90;;
29246;SDS011;16272;48.188;9.964;2022-09-09T05:17:10;9.63;;;3.00;;
29246;SDS011;16272;48.188;9.964;2022-09-09T05:19:36;8.63;;;3.03;;
29246;SDS011;16272;48.188;9.964;2022-09-09T05:22:02;8.77;;;3.20;;
29246;SDS011;16272;48.188;9.964;2022-09-09T05:24:27;8.55;;;3.08;;
29246;SDS011;16272;48.188;9.964;2022-09-09T05:26:53;8.40;;;2.73;;
29246;SDS011;16272;48.188;9.964;2022-09-09T05:29:18;8.90;;;2.90;;
29246;SDS011;16272;48.188;9.964;2022-09-09T05:31:45;6.97;;;2.70;;
29246;SDS011;16272;48.188;9.964;2022-09-09T05:34:12;8.63;;;2.70;;
29246;SDS011;16272;48.188;9.964;2022-09-09T05:36:37;7.87;;;2.73;;
29246;SDS011;16272;48.188;9.964;2022-09-09T05:39:02;7.57;;;3.00;;
29246;SDS011;16272;48.188;9.964;2022-09-09T05:41:28;7.57;;;2.83;;
29246;SDS011;16272;48.188;9.964;2022-09-09T05:43:54;8.35;;;3.10;;
29246;SDS011;16272;48.188;9.964;2022-09-09T05:46:22;10.83;;;3.60;;
29246;SDS011;16272;48.188;9.964;2022-09-09T05:48:50;8.32;;;2.83;;
29246;SDS011;16272;48.188;9.964;2022-09-09T05:51:23;8.95;;;3.65;;
29246;SDS011;16272;48.188;9.964;2022-09-09T05:53:51;9.93;;;3.78;;
29246;SDS011;16272;48.188;9.964;2022-09-09T05:56:20;9.13;;;3.40;;
29246;SDS011;16272;48.188;9.964;2022-09-09T05:58:49;8.38;;;3.10;;
29246;SDS011;16272;48.188;9.964;2022-09-09T06:01:24;10.70;;;3.38;;
29246;SDS011;16272;48.188;9.964;2022-09-09T06:04:07;10.80;;;3.67;;
29246;SDS011;16272;48.188;9.964;2022-09-09T06:06:34;10.05;;;3.65;;
29246;SDS011;16272;48.188;9.964;2022-09-09T06:09:02;10.13;;;3.23;;
29246;SDS011;16272;48.188;9.964;2022-09-09T06:11:30;9.95;;;3.40;;
29246;SDS011;16272;48.188;9.964;2022-09-09T06:13:58;9.20;;;3.65;;
29246;SDS011;16272;48.188;9.964;2022-09-09T06:16:25;8.90;;;3.10;;
29246;SDS011;16272;48.188;9.964;2022-09-09T06:18:55;9.32;;;3.20;;
29246;SDS011;16272;48.188;9.964;2022-09-09T06:21:23;8.57;;;3.30;;
29246;SDS011;16272;48.188;9.964;2022-09-09T06:23:51;10.10;;;3.53;;
29246;SDS011;16272;48.188;9.964;2022-09-09T06:26:21;9.98;;;3.28;;
29246;SDS011;16272;48.188;9.964;2022-09-09T06:28:50;8.68;;;3.20;;
29246;SDS011;16272;48.188;9.964;2022-09-09T06:31:18;8.85;;;3.38;;
29246;SDS011;16272;48.188;9.964;2022-09-09T06:33:52;9.57;;;3.50;;
29246;SDS011;16272;48.188;9.964;2022-09-09T06:36:20;9.07;;;3.40;;
29246;SDS011;16272;48.188;9.964;2022-09-09T06:38:48;9.43;;;4.13;;
29246;SDS011;16272;48.188;9.964;2022-09-09T06:41:14;8.07;;;3.30;;
29246;SDS011;16272;48.188;9.964;2022-09-09T06:43:42;8.18;;;3.35;;
29246;SDS011;16272;48.188;9.964;2022-09-09T06:48:45;9.45;;;3.72;;
29246;SDS011;16272;48.188;9.964;2022-09-09T06:51:14;9.83;;;4.13;;
29246;SDS011;16272;48.188;9.964;2022-09-09T06:53:46;9.38;;;3.40;;
29246;SDS011;16272;48.188;9.964;2022-09-09T06:56:20;9.50;;;3.58;;
29246;SDS011;16272;48.188;9.964;2022-09-09T06:59:03;10.73;;;3.30;;
29246;SDS011;16272;48.188;9.964;2022-09-09T07:01:34;8.27;;;3.58;;
29246;SDS011;16272;48.188;9.964;2022-09-09T07:04:07;6.93;;;2.63;;
29246;SDS011;16272;48.188;9.964;2022-09-09T07:06:35;8.40;;;2.25;;
29246;SDS011;16272;48.188;9.964;2022-09-09T07:09:04;7.10;;;2.15;;
29246;SDS011;16272;48.188;9.964;2022-09-09T07:14:24;7.15;;;2.33;;
29246;SDS011;16272;48.188;9.964;2022-09-09T07:16:50;7.70;;;2.03;;
29246;SDS011;16272;48.188;9.964;2022-09-09T07:19:22;7.00;;;2.38;;
29246;SDS011;16272;48.188;9.964;2022-09-09T07:21:48;5.77;;;1.83;;
29246;SDS011;16272;48.188;9.964;2022-09-09T07:24:14;7.15;;;1.92;;
29246;SDS011;16272;48.188;9.964;2022-09-09T07:26:40;6.20;;;1.90;;
29246;SDS011;16272;48.188;9.964;2022-09-09T07:29:08;7.30;;;1.52;;
29246;SDS011;16272;48.188;9.964;2022-09-09T07:31:34;5.83;;;1.57;;
29246;SDS011;16272;48.188;9.964;2022-09-09T07:34:01;5.57;;;1.52;;
29246;SDS011;16272;48.188;9.964;2022-09-09T07:36:29;5.53;;;1.73;;
29246;SDS011;16272;48.188;9.964;2022-09-09T07:38:58;7.28;;;1.52;;
29246;SDS011;16272;48.188;9.964;2022-09-09T07:41:28;6.28;;;1.63;;
29246;SDS011;16272;48.188;9.964;2022-09-09T07:43:57;6.80;;;1.90;;
29246;SDS011;16272;48.188;9.964;2022-09-09T07:46:24;7.88;;;1.70;;
29246;SDS011;16272;48.188;9.964;2022-09-09T07:48:54;5.72;;;1.70;;
29246;SDS011;16272;48.188;9.964;2022-09-09T07:51:22;11.00;;;2.00;;
29246;SDS011;16272;48.188;9.964;2022-09-09T07:53:53;9.00;;;1.70;;
29246;SDS011;16272;48.188;9.964;2022-09-09T07:56:24;6.87;;;1.53;;
29246;SDS011;16272;48.188;9.964;2022-09-09T07:58:51;6.60;;;1.67;;
29246;SDS011;16272;48.188;9.964;2022-09-09T08:01:26;6.15;;;1.50;;
29246;SDS011;16272;48.188;9.964;2022-09-09T08:04:03;6.75;;;1.70;;
29246;SDS011;16272;48.188;9.964;2022-09-09T08:06:34;5.85;;;1.83;;
29246;SDS011;16272;48.188;9.964;2022-09-09T08:09:02;5.87;;;1.80;;
29246;SDS011;16272;48.188;9.964;2022-09-09T08:11:28;6.55;;;1.73;;
29246;SDS011;16272;48.188;9.964;2022-09-09T08:13:54;6.15;;;1.40;;
29246;SDS011;16272;48.188;9.964;2022-09-09T08:16:31;6.82;;;1.75;;
29246;SDS011;16272;48.188;9.964;2022-09-09T08:18:59;7.47;;;1.80;;
29246;SDS011;16272;48.188;9.964;2022-09-09T08:21:25;6.87;;;1.67;;
29246;SDS011;16272;48.188;9.964;2022-09-09T08:23:53;6.50;;;1.83;;
29246;SDS011;16272;48.188;9.964;2022-09-09T08:26:22;7.30;;;1.55;;
29246;SDS011;16272;48.188;9.964;2022-09-09T08:28:58;6.57;;;1.60;;
29246;SDS011;16272;48.188;9.964;2022-09-09T08:31:32;7.70;;;1.90;;
29246;SDS011;16272;48.188;9.964;2022-09-09T08:34:02;6.77;;;1.50;;
29246;SDS011;16272;48.188;9.964;2022-09-09T08:36:29;5.65;;;1.60;;
29246;SDS011;16272;48.188;9.964;2022-09-09T08:39:02;7.38;;;1.40;;
29246;SDS011;16272;48.188;9.964;2022-09-09T08:52:31;7.50;;;1.30;;
29246;SDS011;16272;48.188;9.964;2022-09-09T08:58:25;5.35;;;1.38;;
29246;SDS011;16272;48.188;9.964;2022-09-09T09:06:49;5.68;;;1.23;;
29246;SDS011;16272;48.188;9.964;2022-09-09T09:09:40;5.82;;;1.42;;
29246;SDS011;16272;48.188;9.964;2022-09-09T09:12:32;6.85;;;1.50;;
29246;SDS011;16272;48.188;9.964;2022-09-09T09:14:57;4.93;;;1.40;;
29246;SDS011;16272;48.188;9.964;2022-09-09T09:17:25;7.68;;;1.60;;
29246;SDS011;16272;48.188;9.964;2022-09-09T09:19:56;6.65;;;1.48;;
29246;SDS011;16272;48.188;9.964;2022-09-09T09:22:36;6.38;;;1.50;;
29246;SDS011;16272;48.188;9.964;2022-09-09T09:25:11;5.57;;;1.50;;
29246;SDS011;16272;48.188;9.964;2022-09-09T09:30:49;6.22;;;1.35;;
29246;SDS011;16272;48.188;9.964;2022-09-09T09:36:02;5.78;;;1.20;;
29246;SDS011;16272;48.188;9.964;2022-09-09T09:40:59;5.50;;;1.20;;
29246;SDS011;16272;48.188;9.964;2022-09-09T09:43:29;6.82;;;1.33;;
29246;SDS011;16272;48.188;9.964;2022-09-09T09:45:58;4.65;;;1.25;;
29246;SDS011;16272;48.188;9.964;2022-09-09T09:48:24;6.63;;;1.42;;
29246;SDS011;16272;48.188;9.964;2022-09-09T09:50:52;5.40;;;1.20;;
29246;SDS011;16272;48.188;9.964;2022-09-09T09:53:24;5.88;;;1.10;;
29246;SDS011;16272;48.188;9.964;2022-09-09T09:55:58;5.50;;;1.30;;
29246;SDS011;16272;48.188;9.964;2022-09-09T09:58:33;5.75;;;1.30;;
29246;SDS011;16272;48.188;9.964;2022-09-09T10:01:26;6.97;;;1.60;;
29246;SDS011;16272;48.188;9.964;2022-09-09T10:03:57;6.83;;;1.30;;
29246;SDS011;16272;48.188;9.964;2022-09-09T10:06:34;7.05;;;1.67;;
29246;SDS011;16272;48.188;9.964;2022-09-09T10:09:02;6.45;;;1.50;;
29246;SDS011;16272;48.188;9.964;2022-09-09T10:33:50;4.73;;;1.17;;
29246;SDS011;16272;48.188;9.964;2022-09-09T10:36:25;5.60;;;1.20;;
29246;SDS011;16272;48.188;9.964;2022-09-09T10:55:20;5.88;;;1.42;;
29246;SDS011;16272;48.188;9.964;2022-09-09T10:57:52;5.53;;;1.30;;
29246;SDS011;16272;48.188;9.964;2022-09-09T11:00:23;5.55;;;1.20;;
29246;SDS011;16272;48.188;9.964;2022-09-09T11:03:04;4.85;;;1.02;;
29246;SDS011;16272;48.188;9.964;2022-09-09T11:08:25;13.82;;;1.30;;
29246;SDS011;16272;48.188;9.964;2022-09-09T11:10:58;6.07;;;1.10;;
29246;SDS011;16272;48.188;9.964;2022-09-09T11:13:45;5.97;;;1.10;;
29246;SDS011;16272;48.188;9.964;2022-09-09T11:19:26;5.47;;;1.10;;
29246;SDS011;16272;48.188;9.964;2022-09-09T11:21:53;5.25;;;1.30;;
29246;SDS011;16272;48.188;9.964;2022-09-09T11:41:05;4.78;;;1.20;;
29246;SDS011;16272;48.188;9.964;2022-09-09T11:43:40;4.47;;;0.93;;
29246;SDS011;16272;48.188;9.964;2022-09-09T11:46:09;5.10;;;1.33;;
29246;SDS011;16272;48.188;9.964;2022-09-09T11:48:36;5.72;;;1.25;;
29246;SDS011;16272;48.188;9.964;2022-09-09T11:53:32;5.95;;;1.40;;
29246;SDS011;16272;48.188;9.964;2022-09-09T11:56:00;4.03;;;0.90;;
29246;SDS011;16272;48.188;9.964;2022-09-09T11:58:26;5.30;;;1.27;;
29246;SDS011;16272;48.188;9.964;2022-09-09T12:00:57;5.03;;;1.20;;
29246;SDS011;16272;48.188;9.964;2022-09-09T12:08:53;4.38;;;1.20;;
29246;SDS011;16272;48.188;9.964;2022-09-09T12:11:24;4.18;;;0.90;;
29246;SDS011;16272;48.188;9.964;2022-09-09T12:13:56;4.65;;;1.38;;
29246;SDS011;16272;48.188;9.964;2022-09-09T12:16:30;5.30;;;1.10;;
29246;SDS011;16272;48.188;9.964;2022-09-09T12:19:06;4.72;;;1.33;;
29246;SDS011;16272;48.188;9.964;2022-09-09T12:22:01;5.95;;;1.50;;
29246;SDS011;16272;48.188;9.964;2022-09-09T12:24:47;4.35;;;1.08;;
29246;SDS011;16272;48.188;9.964;2022-09-09T12:27:36;5.13;;;1.27;;
29246;SDS011;16272;48.188;9.964;2022-09-09T12:30:10;4.63;;;1.10;;
29246;SDS011;16272;48.188;9.964;2022-09-09T12:32:39;5.05;;;1.20;;
29246;SDS011;16272;48.188;9.964;2022-09-09T12:35:09;5.47;;;1.27;;
29246;SDS011;16272;48.188;9.964;2022-09-09T12:37:47;3.85;;;1.15;;
29246;SDS011;16272;48.188;9.964;2022-09-09T12:42:51;4.87;;;1.13;;
29246;SDS011;16272;48.188;9.964;2022-09-09T12:45:20;6.00;;;1.20;;
29246;SDS011;16272;48.188;9.964;2022-09-09T12:48:08;6.72;;;1.20;;
29246;SDS011;16272;48.188;9.964;2022-09-09T12:50:44;6.47;;;1.48;;
29246;SDS011;16272;48.188;9.964;2022-09-09T12:53:21;8.40;;;1.30;;
29246;SDS011;16272;48.188;9.964;2022-09-09T12:55:52;5.45;;;1.40;;
29246;SDS011;16272;48.188;9.964;2022-09-09T12:58:37;4.60;;;1.10;;
29246;SDS011;16272;48.188;9.964;2022-09-09T13:01:05;5.90;;;2.00;;
29246;SDS011;16272;48.188;9.964;2022-09-09T13:03:41;8.15;;;1.35;;
29246;SDS011;16272;48.188;9.964;2022-09-09T13:06:12;6.53;;;1.27;;
29246;SDS011;16272;48.188;9.964;2022-09-09T13:08:43;5.95;;;1.42;;
29246;SDS011;16272;48.188;9.964;2022-09-09T13:11:16;6.07;;;1.83;;
29246;SDS011;16272;48.188;9.964;2022-09-09T13:13:53;5.38;;;1.10;;
29246;SDS011;16272;48.188;9.964;2022-09-09T13:18:49;5.40;;;1.33;;
29246;SDS011;16272;48.188;9.964;2022-09-09T13:21:14;7.03;;;1.37;;
29246;SDS011;16272;48.188;9.964;2022-09-09T13:23:40;5.32;;;1.30;;
29246;SDS011;16272;48.188;9.964;2022-09-09T13:26:22;5.03;;;1.30;;
29246;SDS011;16272;48.188;9.964;2022-09-09T13:28:49;5.25;;;1.70;;
29246;SDS011;16272;48.188;9.964;2022-09-09T13:31:20;6.03;;;1.42;;
29246;SDS011;16272;48.188;9.964;2022-09-09T13:33:53;6.73;;;1.30;;
29246;SDS011;16272;48.188;9.964;2022-09-09T13:36:27;4.50;;;1.30;;
29246;SDS011;16272;48.188;9.964;2022-09-09T13:38:58;5.47;;;1.50;;
29246;SDS011;16272;48.188;9.964;2022-09-09T13:41:43;6.18;;;1.33;;
29246;SDS011;16272;48.188;9.964;2022-09-09T13:47:20;4.60;;;0.95;;
29246;SDS011;16272;48.188;9.964;2022-09-09T13:49:51;4.38;;;1.20;;
29246;SDS011;16272;48.188;9.964;2022-09-09T13:52:17;4.13;;;1.17;;
29246;SDS011;16272;48.188;9.964;2022-09-09T13:54:50;7.17;;;1.00;;
29246;SDS011;16272;48.188;9.964;2022-09-09T13:57:23;8.55;;;1.20;;
29246;SDS011;16272;48.188;9.964;2022-09-09T13:59:51;4.50;;;1.27;;
29246;SDS011;16272;48.188;9.964;2022-09-09T14:02:17;3.97;;;1.00;;
29246;SDS011;16272;48.188;9.964;2022-09-09T14:04:43;5.93;;;1.03;;
29246;SDS011;16272;48.188;9.964;2022-09-09T14:07:16;4.00;;;1.17;;
29246;SDS011;16272;48.188;9.964;2022-09-09T14:09:43;5.28;;;1.08;;
29246;SDS011;16272;48.188;9.964;2022-09-09T14:12:11;5.78;;;1.40;;
29246;SDS011;16272;48.188;9.964;2022-09-09T14:14:38;4.57;;;1.10;;
29246;SDS011;16272;48.188;9.964;2022-09-09T14:17:03;4.30;;;0.95;;
29246;SDS011;16272;48.188;9.964;2022-09-09T14:19:29;4.78;;;1.20;;
29246;SDS011;16272;48.188;9.964;2022-09-09T14:22:04;4.40;;;1.10;;
29246;SDS011;16272;48.188;9.964;2022-09-09T14:24:30;6.47;;;1.00;;
29246;SDS011;16272;48.188;9.964;2022-09-09T14:26:55;3.70;;;1.00;;
29246;SDS011;16272;48.188;9.964;2022-09-09T14:29:21;5.70;;;1.30;;
29246;SDS011;16272;48.188;9.964;2022-09-09T14:31:46;3.80;;;0.90;;
29246;SDS011;16272;48.188;9.964;2022-09-09T14:34:11;4.70;;;1.00;;
29246;SDS011;16272;48.188;9.964;2022-09-09T14:36:39;4.55;;;0.95;;
29246;SDS011;16272;48.188;9.964;2022-09-09T14:39:05;4.00;;;0.90;;
29246;SDS011;16272;48.188;9.964;2022-09-09T14:41:30;5.57;;;1.40;;
29246;SDS011;16272;48.188;9.964;2022-09-09T14:43:57;5.47;;;1.17;;
29246;SDS011;16272;48.188;9.964;2022-09-09T14:46:32;5.25;;;1.20;;
29246;SDS011;16272;48.188;9.964;2022-09-09T14:48:58;5.32;;;1.15;;
29246;SDS011;16272;48.188;9.964;2022-09-09T14:51:26;5.30;;;1.10;;
29246;SDS011;16272;48.188;9.964;2022-09-09T14:53:55;5.83;;;1.20;;
29246;SDS011;16272;48.188;9.964;2022-09-09T14:56:23;7.55;;;1.48;;
29246;SDS011;16272;48.188;9.964;2022-09-09T14:58:52;6.45;;;1.13;;
29246;SDS011;16272;48.188;9.964;2022-09-09T15:01:18;4.28;;;0.88;;
29246;SDS011;16272;48.188;9.964;2022-09-09T15:03:57;4.28;;;1.17;;
29246;SDS011;16272;48.188;9.964;2022-09-09T15:06:28;4.83;;;1.00;;
29246;SDS011;16272;48.188;9.964;2022-09-09T15:08:58;5.47;;;1.08;;
29246;SDS011;16272;48.188;9.964;2022-09-09T15:11:29;4.72;;;1.10;;
29246;SDS011;16272;48.188;9.964;2022-09-09T15:13:57;4.75;;;0.90;;
29246;SDS011;16272;48.188;9.964;2022-09-09T15:16:30;6.13;;;1.30;;
29246;SDS011;16272;48.188;9.964;2022-09-09T15:18:57;5.83;;;1.20;;
29246;SDS011;16272;48.188;9.964;2022-09-09T15:21:25;5.10;;;1.13;;
29246;SDS011;16272;48.188;9.964;2022-09-09T15:23:53;4.38;;;0.95;;
29246;SDS011;16272;48.188;9.964;2022-09-09T15:26:18;6.40;;;1.10;;
29246;SDS011;16272;48.188;9.964;2022-09-09T15:28:45;5.35;;;1.20;;
29246;SDS011;16272;48.188;9.964;2022-09-09T15:33:39;5.15;;;1.08;;
29246;SDS011;16272;48.188;9.964;2022-09-09T15:36:22;7.00;;;1.20;;
29246;SDS011;16272;48.188;9.964;2022-09-09T15:38:49;5.43;;;1.00;;
29246;SDS011;16272;48.188;9.964;2022-09-09T15:41:16;4.78;;;1.05;;
29246;SDS011;16272;48.188;9.964;2022-09-09T15:43:46;5.25;;;0.90;;
29246;SDS011;16272;48.188;9.964;2022-09-09T15:49:13;5.10;;;1.20;;
29246;SDS011;16272;48.188;9.964;2022-09-09T15:51:52;5.82;;;1.13;;
29246;SDS011;16272;48.188;9.964;2022-09-09T15:54:21;5.55;;;1.00;;
29246;SDS011;16272;48.188;9.964;2022-09-09T15:56:55;4.80;;;1.00;;
29246;SDS011;16272;48.188;9.964;2022-09-09T15:59:23;4.15;;;0.90;;
29246;SDS011;16272;48.188;9.964;2022-09-09T16:04:18;5.97;;;1.17;;
29246;SDS011;16272;48.188;9.964;2022-09-09T16:06:51;4.43;;;0.98;;
29246;SDS011;16272;48.188;9.964;2022-09-09T16:09:34;5.25;;;0.90;;
29246;SDS011;16272;48.188;9.964;2022-09-09T16:12:00;6.40;;;1.27;;
29246;SDS011;16272;48.188;9.964;2022-09-09T16:14:29;5.72;;;1.35;;
29246;SDS011;16272;48.188;9.964;2022-09-09T16:16:59;7.05;;;0.98;;
29246;SDS011;16272;48.188;9.964;2022-09-09T16:19:32;5.43;;;1.03;;
29246;SDS011;16272;48.188;9.964;2022-09-09T16:21:59;6.45;;;1.15;;
29246;SDS011;16272;48.188;9.964;2022-09-09T16:24:25;5.63;;;1.00;;
29246;SDS011;16272;48.188;9.964;2022-09-09T16:29:21;4.30;;;0.97;;
29246;SDS011;16272;48.188;9.964;2022-09-09T16:31:48;6.45;;;1.38;;
29246;SDS011;16272;48.188;9.964;2022-09-09T16:34:15;6.50;;;1.20;;
29246;SDS011;16272;48.188;9.964;2022-09-09T16:36:42;5.05;;;1.10;;
29246;SDS011;16272;48.188;9.964;2022-09-09T16:39:10;6.88;;;1.10;;
29246;SDS011;16272;48.188;9.964;2022-09-09T16:41:37;7.33;;;1.10;;
29246;SDS011;16272;48.188;9.964;2022-09-09T16:44:04;5.25;;;1.17;;
29246;SDS011;16272;48.188;9.964;2022-09-09T16:46:32;3.92;;;0.77;;
29246;SDS011;16272;48.188;9.964;2022-09-09T16:49:00;4.25;;;1.00;;
29246;SDS011;16272;48.188;9.964;2022-09-09T16:51:28;6.10;;;0.90;;
29246;SDS011;16272;48.188;9.964;2022-09-09T16:56:38;3.83;;;0.80;;
29246;SDS011;16272;48.188;9.964;2022-09-09T16:59:09;3.70;;;1.10;;
29246;SDS011;16272;48.188;9.964;2022-09-09T17:01:38;4.15;;;0.73;;
29246;SDS011;16272;48.188;9.964;2022-09-09T17:04:06;3.47;;;0.70;;
29246;SDS011;16272;48.188;9.964;2022-09-09T17:06:33;4.47;;;1.23;;
29246;SDS011;16272;48.188;9.964;2022-09-09T17:09:13;3.67;;;0.68;;
29246;SDS011;16272;48.188;9.964;2022-09-09T17:11:39;5.40;;;1.00;;
29246;SDS011;16272;48.188;9.964;2022-09-09T17:14:06;5.65;;;0.90;;
29246;SDS011;16272;48.188;9.964;2022-09-09T17:19:05;4.13;;;0.87;;
29246;SDS011;16272;48.188;9.964;2022-09-09T17:21:31;4.70;;;0.90;;
29246;SDS011;16272;48.188;9.964;2022-09-09T17:23:57;5.20;;;1.10;;
29246;SDS011;16272;48.188;9.964;2022-09-09T17:26:24;3.97;;;0.75;;
29246;SDS011;16272;48.188;9.964;2022-09-09T17:28:54;6.03;;;0.90;;
29246;SDS011;16272;48.188;9.964;2022-09-09T17:31:28;4.22;;;0.90;;
29246;SDS011;16272;48.188;9.964;2022-09-09T17:33:55;4.35;;;1.00;;
29246;SDS011;16272;48.188;9.964;2022-09-09T17:36:21;5.90;;;0.83;;
29246;SDS011;16272;48.188;9.964;2022-09-09T17:38:49;4.25;;;0.80;;
29246;SDS011;16272;48.188;9.964;2022-09-09T17:41:20;4.53;;;1.00;;
29246;SDS011;16272;48.188;9.964;2022-09-09T17:43:47;5.38;;;1.08;;
29246;SDS011;16272;48.188;9.964;2022-09-09T17:48:47;4.30;;;0.70;;
29246;SDS011;16272;48.188;9.964;2022-09-09T17:51:16;5.28;;;1.20;;
29246;SDS011;16272;48.188;9.964;2022-09-09T17:53:45;3.88;;;0.77;;
29246;SDS011;16272;48.188;9.964;2022-09-09T17:56:14;4.60;;;1.00;;
29246;SDS011;16272;48.188;9.964;2022-09-09T17:58:41;4.63;;;1.10;;
29246;SDS011;16272;48.188;9.964;2022-09-09T18:01:42;5.07;;;1.20;;
29246;SDS011;16272;48.188;9.964;2022-09-09T18:04:03;5.25;;;1.10;;
29246;SDS011;16272;48.188;9.964;2022-09-09T18:09:03;4.88;;;0.90;;